sensor_id;sensor_type;location;lat;lon;timestamp;P1;durP1;ratioP1;P2;durP2;ratioP2
9248;SDS011;4660;41.768;26.198;2022-07-23T00:01:18;13.50;;;4.20;;
9248;SDS011;4660;41.768;26.198;2022-07-23T00:03:44;8.63;;;4.65;;
9248;SDS011;4660;41.768;26.198;2022-07-23T00:06:10;7.93;;;4.38;;
9248;SDS011;4660;41.768;26.198;2022-07-23T00:08:36;5.82;;;4.65;;
9248;SDS011;4660;41.768;26.198;2022-07-23T00:11:01;7.90;;;4.50;;
9248;SDS011;4660;41.768;26.198;2022-07-23T00:13:27;8.77;;;4.35;;
9248;SDS011;4660;41.768;26.198;2022-07-23T00:15:53;9.27;;;4.72;;
9248;SDS011;4660;41.768;26.198;2022-07-23T00:18:19;8.85;;;4.25;;
9248;SDS011;4660;41.768;26.198;2022-07-23T00:20:44;8.80;;;3.97;;
9248;SDS011;4660;41.768;26.198;2022-07-23T00:23:10;8.32;;;4.32;;
9248;SDS011;4660;41.768;26.198;2022-07-23T00:25:35;6.90;;;4.53;;
9248;SDS011;4660;41.768;26.198;2022-07-23T00:28:02;7.10;;;3.40;;
9248;SDS011;4660;41.768;26.198;2022-07-23T00:30:28;8.40;;;3.65;;
9248;SDS011;4660;41.768;26.198;2022-07-23T00:32:56;4.93;;;3.90;;
9248;SDS011;4660;41.768;26.198;2022-07-23T00:35:24;6.57;;;4.00;;
9248;SDS011;4660;41.768;26.198;2022-07-23T00:37:52;6.85;;;4.28;;
9248;SDS011;4660;41.768;26.198;2022-07-23T00:40:19;5.00;;;4.28;;
9248;SDS011;4660;41.768;26.198;2022-07-23T00:42:44;6.40;;;4.18;;
9248;SDS011;4660;41.768;26.198;2022-07-23T00:45:10;4.85;;;4.07;;
9248;SDS011;4660;41.768;26.198;2022-07-23T00:47:36;6.15;;;4.65;;
9248;SDS011;4660;41.768;26.198;2022-07-23T00:50:06;7.20;;;4.22;;
9248;SDS011;4660;41.768;26.198;2022-07-23T00:52:33;7.18;;;4.40;;
9248;SDS011;4660;41.768;26.198;2022-07-23T00:55:01;6.97;;;4.03;;
9248;SDS011;4660;41.768;26.198;2022-07-23T00:57:28;6.78;;;4.72;;
9248;SDS011;4660;41.768;26.198;2022-07-23T00:59:53;12.93;;;3.90;;
9248;SDS011;4660;41.768;26.198;2022-07-23T01:02:19;9.00;;;3.95;;
9248;SDS011;4660;41.768;26.198;2022-07-23T01:04:44;10.13;;;4.38;;
9248;SDS011;4660;41.768;26.198;2022-07-23T01:07:10;5.82;;;3.95;;
9248;SDS011;4660;41.768;26.198;2022-07-23T01:09:36;8.52;;;3.92;;
9248;SDS011;4660;41.768;26.198;2022-07-23T01:12:03;8.35;;;4.70;;
9248;SDS011;4660;41.768;26.198;2022-07-23T01:14:29;9.90;;;4.07;;
9248;SDS011;4660;41.768;26.198;2022-07-23T01:16:54;7.65;;;3.85;;
9248;SDS011;4660;41.768;26.198;2022-07-23T01:19:20;7.35;;;3.92;;
9248;SDS011;4660;41.768;26.198;2022-07-23T01:21:46;7.75;;;3.85;;
9248;SDS011;4660;41.768;26.198;2022-07-23T01:24:13;7.93;;;4.43;;
9248;SDS011;4660;41.768;26.198;2022-07-23T01:26:41;4.00;;;3.63;;
9248;SDS011;4660;41.768;26.198;2022-07-23T01:29:08;5.18;;;4.63;;
9248;SDS011;4660;41.768;26.198;2022-07-23T01:31:34;9.80;;;4.97;;
9248;SDS011;4660;41.768;26.198;2022-07-23T01:33:59;7.25;;;4.80;;
9248;SDS011;4660;41.768;26.198;2022-07-23T01:36:25;6.72;;;4.53;;
9248;SDS011;4660;41.768;26.198;2022-07-23T01:38:51;7.85;;;4.75;;
9248;SDS011;4660;41.768;26.198;2022-07-23T01:41:17;9.70;;;4.68;;
9248;SDS011;4660;41.768;26.198;2022-07-23T01:43:42;9.48;;;4.50;;
9248;SDS011;4660;41.768;26.198;2022-07-23T01:46:08;7.78;;;4.90;;
9248;SDS011;4660;41.768;26.198;2022-07-23T01:48:34;11.68;;;5.13;;
9248;SDS011;4660;41.768;26.198;2022-07-23T01:51:00;7.32;;;4.78;;
9248;SDS011;4660;41.768;26.198;2022-07-23T01:53:25;7.28;;;4.82;;
9248;SDS011;4660;41.768;26.198;2022-07-23T01:55:51;7.28;;;4.43;;
9248;SDS011;4660;41.768;26.198;2022-07-23T01:58:16;7.22;;;4.50;;
9248;SDS011;4660;41.768;26.198;2022-07-23T02:00:42;7.22;;;4.65;;
9248;SDS011;4660;41.768;26.198;2022-07-23T02:03:07;8.25;;;4.65;;
9248;SDS011;4660;41.768;26.198;2022-07-23T02:05:33;12.35;;;5.60;;
9248;SDS011;4660;41.768;26.198;2022-07-23T02:07:59;14.30;;;4.68;;
9248;SDS011;4660;41.768;26.198;2022-07-23T02:10:26;9.27;;;4.68;;
9248;SDS011;4660;41.768;26.198;2022-07-23T02:12:52;7.07;;;4.45;;
9248;SDS011;4660;41.768;26.198;2022-07-23T02:15:18;5.85;;;4.30;;
9248;SDS011;4660;41.768;26.198;2022-07-23T02:17:43;13.77;;;4.78;;
9248;SDS011;4660;41.768;26.198;2022-07-23T02:20:09;9.95;;;4.95;;
9248;SDS011;4660;41.768;26.198;2022-07-23T02:22:36;9.90;;;4.63;;
9248;SDS011;4660;41.768;26.198;2022-07-23T02:25:03;7.65;;;5.22;;
9248;SDS011;4660;41.768;26.198;2022-07-23T02:27:29;13.07;;;4.57;;
9248;SDS011;4660;41.768;26.198;2022-07-23T02:29:55;8.88;;;4.60;;
9248;SDS011;4660;41.768;26.198;2022-07-23T02:32:20;13.07;;;4.93;;
9248;SDS011;4660;41.768;26.198;2022-07-23T02:34:48;8.93;;;4.93;;
9248;SDS011;4660;41.768;26.198;2022-07-23T02:37:14;11.63;;;4.90;;
9248;SDS011;4660;41.768;26.198;2022-07-23T02:39:40;9.45;;;4.70;;
9248;SDS011;4660;41.768;26.198;2022-07-23T02:42:06;8.73;;;4.53;;
9248;SDS011;4660;41.768;26.198;2022-07-23T02:44:32;9.70;;;4.93;;
9248;SDS011;4660;41.768;26.198;2022-07-23T02:46:57;9.95;;;5.90;;
9248;SDS011;4660;41.768;26.198;2022-07-23T02:49:23;10.02;;;5.43;;
9248;SDS011;4660;41.768;26.198;2022-07-23T02:51:49;10.60;;;6.03;;
9248;SDS011;4660;41.768;26.198;2022-07-23T02:54:14;6.88;;;5.38;;
9248;SDS011;4660;41.768;26.198;2022-07-23T02:56:40;8.75;;;4.63;;
9248;SDS011;4660;41.768;26.198;2022-07-23T02:59:05;7.03;;;5.15;;
9248;SDS011;4660;41.768;26.198;2022-07-23T03:01:31;6.20;;;5.45;;
9248;SDS011;4660;41.768;26.198;2022-07-23T03:03:57;7.63;;;5.32;;
9248;SDS011;4660;41.768;26.198;2022-07-23T03:06:22;7.22;;;5.38;;
9248;SDS011;4660;41.768;26.198;2022-07-23T03:08:48;10.98;;;5.32;;
9248;SDS011;4660;41.768;26.198;2022-07-23T03:11:13;13.10;;;5.50;;
9248;SDS011;4660;41.768;26.198;2022-07-23T03:13:39;9.82;;;5.63;;
9248;SDS011;4660;41.768;26.198;2022-07-23T03:16:05;9.18;;;5.88;;
9248;SDS011;4660;41.768;26.198;2022-07-23T03:18:32;12.23;;;5.13;;
9248;SDS011;4660;41.768;26.198;2022-07-23T03:20:57;7.03;;;5.22;;
9248;SDS011;4660;41.768;26.198;2022-07-23T03:23:23;6.82;;;5.22;;
9248;SDS011;4660;41.768;26.198;2022-07-23T03:25:49;10.35;;;5.18;;
9248;SDS011;4660;41.768;26.198;2022-07-23T03:28:15;8.38;;;4.68;;
9248;SDS011;4660;41.768;26.198;2022-07-23T03:30:44;11.52;;;5.05;;
9248;SDS011;4660;41.768;26.198;2022-07-23T03:33:13;8.88;;;4.65;;
9248;SDS011;4660;41.768;26.198;2022-07-23T03:35:41;5.93;;;4.90;;
9248;SDS011;4660;41.768;26.198;2022-07-23T03:38:08;9.52;;;5.43;;
9248;SDS011;4660;41.768;26.198;2022-07-23T03:40:33;8.43;;;5.15;;
9248;SDS011;4660;41.768;26.198;2022-07-23T03:42:59;9.30;;;5.10;;
9248;SDS011;4660;41.768;26.198;2022-07-23T03:45:24;10.23;;;4.50;;
9248;SDS011;4660;41.768;26.198;2022-07-23T03:47:50;8.82;;;5.47;;
9248;SDS011;4660;41.768;26.198;2022-07-23T03:50:16;6.60;;;5.20;;
9248;SDS011;4660;41.768;26.198;2022-07-23T03:52:42;6.72;;;4.85;;
9248;SDS011;4660;41.768;26.198;2022-07-23T03:55:08;8.50;;;5.10;;
9248;SDS011;4660;41.768;26.198;2022-07-23T03:57:33;7.63;;;4.72;;
9248;SDS011;4660;41.768;26.198;2022-07-23T03:59:59;12.52;;;6.15;;
9248;SDS011;4660;41.768;26.198;2022-07-23T04:02:25;11.40;;;5.90;;
9248;SDS011;4660;41.768;26.198;2022-07-23T04:04:50;9.05;;;5.85;;
9248;SDS011;4660;41.768;26.198;2022-07-23T04:07:16;10.57;;;6.15;;
9248;SDS011;4660;41.768;26.198;2022-07-23T04:09:45;7.78;;;5.85;;
9248;SDS011;4660;41.768;26.198;2022-07-23T04:12:10;9.02;;;6.15;;
9248;SDS011;4660;41.768;26.198;2022-07-23T04:14:36;7.60;;;6.38;;
9248;SDS011;4660;41.768;26.198;2022-07-23T04:17:02;11.00;;;6.43;;
9248;SDS011;4660;41.768;26.198;2022-07-23T04:19:27;8.48;;;5.07;;
9248;SDS011;4660;41.768;26.198;2022-07-23T04:21:53;10.23;;;5.43;;
9248;SDS011;4660;41.768;26.198;2022-07-23T04:24:19;10.77;;;6.32;;
9248;SDS011;4660;41.768;26.198;2022-07-23T04:26:45;8.63;;;5.80;;
9248;SDS011;4660;41.768;26.198;2022-07-23T04:29:11;8.23;;;5.95;;
9248;SDS011;4660;41.768;26.198;2022-07-23T04:31:36;10.95;;;6.22;;
9248;SDS011;4660;41.768;26.198;2022-07-23T04:34:02;10.93;;;6.32;;
9248;SDS011;4660;41.768;26.198;2022-07-23T04:36:28;7.88;;;6.03;;
9248;SDS011;4660;41.768;26.198;2022-07-23T04:38:54;11.38;;;6.38;;
9248;SDS011;4660;41.768;26.198;2022-07-23T04:41:20;8.90;;;5.70;;
9248;SDS011;4660;41.768;26.198;2022-07-23T04:43:45;7.68;;;5.90;;
9248;SDS011;4660;41.768;26.198;2022-07-23T04:46:12;14.65;;;6.13;;
9248;SDS011;4660;41.768;26.198;2022-07-23T04:48:38;10.48;;;5.35;;
9248;SDS011;4660;41.768;26.198;2022-07-23T04:51:05;6.68;;;5.65;;
9248;SDS011;4660;41.768;26.198;2022-07-23T04:53:31;7.55;;;5.53;;
9248;SDS011;4660;41.768;26.198;2022-07-23T04:55:57;8.80;;;5.60;;
9248;SDS011;4660;41.768;26.198;2022-07-23T04:58:22;6.28;;;4.57;;
9248;SDS011;4660;41.768;26.198;2022-07-23T05:00:48;6.05;;;4.88;;
9248;SDS011;4660;41.768;26.198;2022-07-23T05:03:14;5.82;;;5.13;;
9248;SDS011;4660;41.768;26.198;2022-07-23T05:05:40;5.55;;;4.40;;
9248;SDS011;4660;41.768;26.198;2022-07-23T05:08:06;9.88;;;5.60;;
9248;SDS011;4660;41.768;26.198;2022-07-23T05:10:31;7.28;;;4.50;;
9248;SDS011;4660;41.768;26.198;2022-07-23T05:12:57;5.80;;;4.75;;
9248;SDS011;4660;41.768;26.198;2022-07-23T05:15:23;10.07;;;4.75;;
9248;SDS011;4660;41.768;26.198;2022-07-23T05:17:48;15.68;;;5.47;;
9248;SDS011;4660;41.768;26.198;2022-07-23T05:20:14;8.48;;;4.50;;
9248;SDS011;4660;41.768;26.198;2022-07-23T05:22:40;7.63;;;4.55;;
9248;SDS011;4660;41.768;26.198;2022-07-23T05:25:06;8.05;;;4.40;;
9248;SDS011;4660;41.768;26.198;2022-07-23T05:27:32;12.50;;;4.80;;
9248;SDS011;4660;41.768;26.198;2022-07-23T05:29:58;10.27;;;4.97;;
9248;SDS011;4660;41.768;26.198;2022-07-23T05:32:23;9.02;;;4.57;;
9248;SDS011;4660;41.768;26.198;2022-07-23T05:34:49;7.70;;;4.85;;
9248;SDS011;4660;41.768;26.198;2022-07-23T05:37:15;6.90;;;4.13;;
9248;SDS011;4660;41.768;26.198;2022-07-23T05:39:41;8.77;;;5.25;;
9248;SDS011;4660;41.768;26.198;2022-07-23T05:42:07;8.32;;;4.57;;
9248;SDS011;4660;41.768;26.198;2022-07-23T05:44:33;7.63;;;5.03;;
9248;SDS011;4660;41.768;26.198;2022-07-23T05:46:59;10.50;;;5.60;;
9248;SDS011;4660;41.768;26.198;2022-07-23T05:49:25;7.57;;;5.63;;
9248;SDS011;4660;41.768;26.198;2022-07-23T05:51:50;6.07;;;4.78;;
9248;SDS011;4660;41.768;26.198;2022-07-23T05:54:16;9.57;;;4.88;;
9248;SDS011;4660;41.768;26.198;2022-07-23T05:56:42;6.43;;;4.90;;
9248;SDS011;4660;41.768;26.198;2022-07-23T05:59:08;9.85;;;5.03;;
9248;SDS011;4660;41.768;26.198;2022-07-23T06:01:34;6.13;;;5.03;;
9248;SDS011;4660;41.768;26.198;2022-07-23T06:03:59;9.52;;;4.90;;
9248;SDS011;4660;41.768;26.198;2022-07-23T06:06:25;10.93;;;4.57;;
9248;SDS011;4660;41.768;26.198;2022-07-23T06:08:51;13.45;;;4.80;;
9248;SDS011;4660;41.768;26.198;2022-07-23T06:11:16;7.00;;;5.13;;
9248;SDS011;4660;41.768;26.198;2022-07-23T06:13:42;8.55;;;4.90;;
9248;SDS011;4660;41.768;26.198;2022-07-23T06:16:08;8.07;;;4.97;;
9248;SDS011;4660;41.768;26.198;2022-07-23T06:18:33;9.98;;;4.78;;
9248;SDS011;4660;41.768;26.198;2022-07-23T06:20:59;4.88;;;4.43;;
9248;SDS011;4660;41.768;26.198;2022-07-23T06:23:25;15.32;;;5.00;;
9248;SDS011;4660;41.768;26.198;2022-07-23T06:25:51;5.22;;;4.72;;
9248;SDS011;4660;41.768;26.198;2022-07-23T06:28:17;10.38;;;5.22;;
9248;SDS011;4660;41.768;26.198;2022-07-23T06:30:42;6.10;;;4.72;;
9248;SDS011;4660;41.768;26.198;2022-07-23T06:33:08;14.95;;;5.45;;
9248;SDS011;4660;41.768;26.198;2022-07-23T06:35:34;8.05;;;4.78;;
9248;SDS011;4660;41.768;26.198;2022-07-23T06:38:00;10.35;;;5.80;;
9248;SDS011;4660;41.768;26.198;2022-07-23T06:40:26;7.25;;;5.07;;
9248;SDS011;4660;41.768;26.198;2022-07-23T06:42:51;5.38;;;4.60;;
9248;SDS011;4660;41.768;26.198;2022-07-23T06:45:17;9.07;;;5.18;;
9248;SDS011;4660;41.768;26.198;2022-07-23T06:47:43;6.28;;;4.70;;
9248;SDS011;4660;41.768;26.198;2022-07-23T06:50:09;5.38;;;4.80;;
9248;SDS011;4660;41.768;26.198;2022-07-23T06:52:35;5.40;;;4.85;;
9248;SDS011;4660;41.768;26.198;2022-07-23T06:55:00;5.97;;;4.90;;
9248;SDS011;4660;41.768;26.198;2022-07-23T06:57:26;6.40;;;4.75;;
9248;SDS011;4660;41.768;26.198;2022-07-23T06:59:51;6.30;;;4.43;;
9248;SDS011;4660;41.768;26.198;2022-07-23T07:02:18;12.23;;;5.15;;
9248;SDS011;4660;41.768;26.198;2022-07-23T07:04:43;8.40;;;5.13;;
9248;SDS011;4660;41.768;26.198;2022-07-23T07:07:12;8.73;;;5.20;;
9248;SDS011;4660;41.768;26.198;2022-07-23T07:09:37;15.98;;;5.10;;
9248;SDS011;4660;41.768;26.198;2022-07-23T07:12:04;8.18;;;4.55;;
9248;SDS011;4660;41.768;26.198;2022-07-23T07:14:30;8.35;;;4.80;;
9248;SDS011;4660;41.768;26.198;2022-07-23T07:16:56;4.68;;;3.92;;
9248;SDS011;4660;41.768;26.198;2022-07-23T07:19:22;6.95;;;4.35;;
9248;SDS011;4660;41.768;26.198;2022-07-23T07:21:47;6.40;;;4.13;;
9248;SDS011;4660;41.768;26.198;2022-07-23T07:24:16;5.82;;;4.30;;
9248;SDS011;4660;41.768;26.198;2022-07-23T07:26:42;6.72;;;3.90;;
9248;SDS011;4660;41.768;26.198;2022-07-23T07:29:08;5.80;;;4.30;;
9248;SDS011;4660;41.768;26.198;2022-07-23T07:31:34;4.80;;;4.30;;
9248;SDS011;4660;41.768;26.198;2022-07-23T07:33:59;4.53;;;4.10;;
9248;SDS011;4660;41.768;26.198;2022-07-23T07:36:25;6.20;;;4.38;;
9248;SDS011;4660;41.768;26.198;2022-07-23T07:38:51;6.43;;;4.35;;
9248;SDS011;4660;41.768;26.198;2022-07-23T07:41:17;7.78;;;4.32;;
9248;SDS011;4660;41.768;26.198;2022-07-23T07:43:48;11.50;;;4.15;;
9248;SDS011;4660;41.768;26.198;2022-07-23T07:46:13;5.10;;;3.97;;
9248;SDS011;4660;41.768;26.198;2022-07-23T07:48:39;10.73;;;4.38;;
9248;SDS011;4660;41.768;26.198;2022-07-23T07:51:05;13.55;;;4.40;;
9248;SDS011;4660;41.768;26.198;2022-07-23T07:53:30;6.13;;;4.50;;
9248;SDS011;4660;41.768;26.198;2022-07-23T07:55:56;7.68;;;4.10;;
9248;SDS011;4660;41.768;26.198;2022-07-23T07:58:22;9.02;;;4.32;;
9248;SDS011;4660;41.768;26.198;2022-07-23T08:00:47;5.82;;;4.22;;
9248;SDS011;4660;41.768;26.198;2022-07-23T08:03:13;9.38;;;4.25;;
9248;SDS011;4660;41.768;26.198;2022-07-23T08:05:39;9.27;;;4.28;;
9248;SDS011;4660;41.768;26.198;2022-07-23T08:08:05;6.93;;;4.80;;
9248;SDS011;4660;41.768;26.198;2022-07-23T08:10:31;6.60;;;4.30;;
9248;SDS011;4660;41.768;26.198;2022-07-23T08:12:57;7.38;;;3.90;;
9248;SDS011;4660;41.768;26.198;2022-07-23T08:15:26;8.00;;;4.28;;
9248;SDS011;4660;41.768;26.198;2022-07-23T08:17:54;5.03;;;4.28;;
9248;SDS011;4660;41.768;26.198;2022-07-23T08:20:21;9.57;;;3.97;;
9248;SDS011;4660;41.768;26.198;2022-07-23T08:22:57;8.38;;;4.40;;
9248;SDS011;4660;41.768;26.198;2022-07-23T08:27:55;11.40;;;3.90;;
9248;SDS011;4660;41.768;26.198;2022-07-23T08:30:22;4.45;;;3.63;;
9248;SDS011;4660;41.768;26.198;2022-07-23T08:32:55;4.75;;;3.65;;
9248;SDS011;4660;41.768;26.198;2022-07-23T08:35:32;7.03;;;3.47;;
9248;SDS011;4660;41.768;26.198;2022-07-23T08:38:00;3.75;;;3.30;;
9248;SDS011;4660;41.768;26.198;2022-07-23T08:40:29;4.10;;;3.65;;
9248;SDS011;4660;41.768;26.198;2022-07-23T08:42:56;6.43;;;4.00;;
9248;SDS011;4660;41.768;26.198;2022-07-23T08:45:26;10.02;;;3.47;;
9248;SDS011;4660;41.768;26.198;2022-07-23T08:47:56;9.82;;;3.83;;
9248;SDS011;4660;41.768;26.198;2022-07-23T08:50:25;4.85;;;3.45;;
9248;SDS011;4660;41.768;26.198;2022-07-23T08:52:53;7.05;;;4.03;;
9248;SDS011;4660;41.768;26.198;2022-07-23T08:55:20;7.95;;;3.65;;
9248;SDS011;4660;41.768;26.198;2022-07-23T08:57:48;3.35;;;3.05;;
9248;SDS011;4660;41.768;26.198;2022-07-23T09:00:15;3.88;;;3.42;;
9248;SDS011;4660;41.768;26.198;2022-07-23T09:02:43;5.18;;;3.53;;
9248;SDS011;4660;41.768;26.198;2022-07-23T09:05:11;6.35;;;3.35;;
9248;SDS011;4660;41.768;26.198;2022-07-23T09:07:38;4.38;;;3.72;;
9248;SDS011;4660;41.768;26.198;2022-07-23T09:10:23;5.60;;;3.38;;
9248;SDS011;4660;41.768;26.198;2022-07-23T09:12:49;7.00;;;3.63;;
9248;SDS011;4660;41.768;26.198;2022-07-23T09:15:15;5.65;;;3.42;;
9248;SDS011;4660;41.768;26.198;2022-07-23T09:17:41;6.30;;;3.75;;
9248;SDS011;4660;41.768;26.198;2022-07-23T09:20:08;7.90;;;3.28;;
9248;SDS011;4660;41.768;26.198;2022-07-23T09:22:46;7.40;;;3.80;;
9248;SDS011;4660;41.768;26.198;2022-07-23T09:25:14;4.93;;;3.65;;
9248;SDS011;4660;41.768;26.198;2022-07-23T09:27:55;14.25;;;3.50;;
9248;SDS011;4660;41.768;26.198;2022-07-23T09:30:22;5.55;;;3.88;;
9248;SDS011;4660;41.768;26.198;2022-07-23T09:33:23;5.32;;;3.63;;
9248;SDS011;4660;41.768;26.198;2022-07-23T09:35:45;5.97;;;3.78;;
9248;SDS011;4660;41.768;26.198;2022-07-23T09:38:14;7.70;;;3.67;;
9248;SDS011;4660;41.768;26.198;2022-07-23T09:40:40;4.88;;;2.75;;
9248;SDS011;4660;41.768;26.198;2022-07-23T09:43:07;7.30;;;3.67;;
9248;SDS011;4660;41.768;26.198;2022-07-23T09:45:33;5.18;;;3.70;;
9248;SDS011;4660;41.768;26.198;2022-07-23T09:48:16;5.32;;;3.60;;
9248;SDS011;4660;41.768;26.198;2022-07-23T09:50:42;5.60;;;3.30;;
9248;SDS011;4660;41.768;26.198;2022-07-23T09:53:23;8.38;;;3.35;;
9248;SDS011;4660;41.768;26.198;2022-07-23T09:55:51;6.15;;;3.40;;
9248;SDS011;4660;41.768;26.198;2022-07-23T09:58:22;4.22;;;3.28;;
9248;SDS011;4660;41.768;26.198;2022-07-23T10:00:52;9.23;;;3.70;;
9248;SDS011;4660;41.768;26.198;2022-07-23T10:03:18;5.60;;;3.50;;
9248;SDS011;4660;41.768;26.198;2022-07-23T10:05:45;11.35;;;3.95;;
9248;SDS011;4660;41.768;26.198;2022-07-23T10:08:13;6.93;;;3.95;;
9248;SDS011;4660;41.768;26.198;2022-07-23T10:10:42;3.63;;;3.33;;
9248;SDS011;4660;41.768;26.198;2022-07-23T10:13:10;5.72;;;3.30;;
9248;SDS011;4660;41.768;26.198;2022-07-23T10:15:51;6.65;;;3.22;;
9248;SDS011;4660;41.768;26.198;2022-07-23T10:18:16;4.95;;;3.28;;
9248;SDS011;4660;41.768;26.198;2022-07-23T10:20:42;4.45;;;3.28;;
9248;SDS011;4660;41.768;26.198;2022-07-23T10:37:23;5.63;;;3.17;;
9248;SDS011;4660;41.768;26.198;2022-07-23T10:40:10;3.42;;;3.13;;
9248;SDS011;4660;41.768;26.198;2022-07-23T10:42:42;6.22;;;3.25;;
9248;SDS011;4660;41.768;26.198;2022-07-23T10:47:47;5.85;;;3.42;;
9248;SDS011;4660;41.768;26.198;2022-07-23T10:50:18;7.20;;;3.38;;
9248;SDS011;4660;41.768;26.198;2022-07-23T10:53:07;10.15;;;3.10;;
9248;SDS011;4660;41.768;26.198;2022-07-23T10:57:57;8.73;;;3.13;;
9248;SDS011;4660;41.768;26.198;2022-07-23T11:00:26;3.35;;;3.05;;
9248;SDS011;4660;41.768;26.198;2022-07-23T11:03:00;8.00;;;3.00;;
9248;SDS011;4660;41.768;26.198;2022-07-23T11:05:41;5.85;;;3.22;;
9248;SDS011;4660;41.768;26.198;2022-07-23T11:10:44;4.22;;;3.33;;
9248;SDS011;4660;41.768;26.198;2022-07-23T11:16:04;8.80;;;3.42;;
9248;SDS011;4660;41.768;26.198;2022-07-23T11:34:32;5.45;;;3.20;;
9248;SDS011;4660;41.768;26.198;2022-07-23T11:37:08;3.88;;;2.85;;
9248;SDS011;4660;41.768;26.198;2022-07-23T11:39:38;4.43;;;3.25;;
9248;SDS011;4660;41.768;26.198;2022-07-23T11:42:05;10.60;;;3.47;;
9248;SDS011;4660;41.768;26.198;2022-07-23T11:44:36;10.38;;;3.55;;
9248;SDS011;4660;41.768;26.198;2022-07-23T11:47:04;7.32;;;3.80;;
9248;SDS011;4660;41.768;26.198;2022-07-23T11:49:35;7.93;;;3.83;;
9248;SDS011;4660;41.768;26.198;2022-07-23T11:54:46;7.75;;;3.80;;
9248;SDS011;4660;41.768;26.198;2022-07-23T11:57:14;6.22;;;3.15;;
9248;SDS011;4660;41.768;26.198;2022-07-23T11:59:41;5.72;;;3.42;;
9248;SDS011;4660;41.768;26.198;2022-07-23T12:02:08;5.15;;;3.55;;
9248;SDS011;4660;41.768;26.198;2022-07-23T12:04:43;10.55;;;3.53;;
9248;SDS011;4660;41.768;26.198;2022-07-23T12:09:52;7.47;;;3.80;;
9248;SDS011;4660;41.768;26.198;2022-07-23T12:12:18;7.25;;;3.58;;
9248;SDS011;4660;41.768;26.198;2022-07-23T12:14:54;8.57;;;3.75;;
9248;SDS011;4660;41.768;26.198;2022-07-23T12:17:29;4.30;;;3.33;;
9248;SDS011;4660;41.768;26.198;2022-07-23T12:19:58;9.32;;;3.45;;
9248;SDS011;4660;41.768;26.198;2022-07-23T12:22:33;5.63;;;4.13;;
9248;SDS011;4660;41.768;26.198;2022-07-23T12:27:38;5.40;;;3.45;;
9248;SDS011;4660;41.768;26.198;2022-07-23T12:32:53;8.15;;;5.05;;
9248;SDS011;4660;41.768;26.198;2022-07-23T12:35:29;9.07;;;4.50;;
9248;SDS011;4660;41.768;26.198;2022-07-23T12:38:17;9.35;;;3.90;;
9248;SDS011;4660;41.768;26.198;2022-07-23T12:43:27;7.40;;;3.90;;
9248;SDS011;4660;41.768;26.198;2022-07-23T12:46:06;7.68;;;3.55;;
9248;SDS011;4660;41.768;26.198;2022-07-23T12:48:36;9.73;;;4.55;;
9248;SDS011;4660;41.768;26.198;2022-07-23T12:53:57;5.53;;;3.58;;
9248;SDS011;4660;41.768;26.198;2022-07-23T12:56:30;7.20;;;4.05;;
9248;SDS011;4660;41.768;26.198;2022-07-23T12:59:08;13.00;;;4.35;;
9248;SDS011;4660;41.768;26.198;2022-07-23T13:01:41;9.00;;;4.20;;
9248;SDS011;4660;41.768;26.198;2022-07-23T13:06:47;12.18;;;4.40;;
9248;SDS011;4660;41.768;26.198;2022-07-23T13:09:19;6.40;;;4.35;;
9248;SDS011;4660;41.768;26.198;2022-07-23T13:11:47;7.95;;;4.07;;
9248;SDS011;4660;41.768;26.198;2022-07-23T13:14:14;6.85;;;4.50;;
9248;SDS011;4660;41.768;26.198;2022-07-23T13:16:41;8.18;;;4.32;;
9248;SDS011;4660;41.768;26.198;2022-07-23T13:19:08;11.75;;;4.20;;
9248;SDS011;4660;41.768;26.198;2022-07-23T13:21:34;5.32;;;3.92;;
9248;SDS011;4660;41.768;26.198;2022-07-23T13:24:00;5.60;;;4.07;;
9248;SDS011;4660;41.768;26.198;2022-07-23T13:26:26;11.73;;;3.97;;
9248;SDS011;4660;41.768;26.198;2022-07-23T13:28:52;10.35;;;4.32;;
9248;SDS011;4660;41.768;26.198;2022-07-23T13:31:18;9.15;;;3.85;;
9248;SDS011;4660;41.768;26.198;2022-07-23T13:33:44;10.65;;;4.43;;
9248;SDS011;4660;41.768;26.198;2022-07-23T13:36:10;7.80;;;4.40;;
9248;SDS011;4660;41.768;26.198;2022-07-23T13:38:36;7.32;;;3.75;;
9248;SDS011;4660;41.768;26.198;2022-07-23T13:41:02;11.73;;;4.10;;
9248;SDS011;4660;41.768;26.198;2022-07-23T13:43:28;6.25;;;3.90;;
9248;SDS011;4660;41.768;26.198;2022-07-23T13:45:56;11.80;;;4.07;;
9248;SDS011;4660;41.768;26.198;2022-07-23T13:48:22;5.97;;;3.70;;
9248;SDS011;4660;41.768;26.198;2022-07-23T13:50:49;5.47;;;3.65;;
9248;SDS011;4660;41.768;26.198;2022-07-23T13:53:19;5.85;;;3.70;;
9248;SDS011;4660;41.768;26.198;2022-07-23T13:55:47;11.60;;;4.03;;
9248;SDS011;4660;41.768;26.198;2022-07-23T13:58:14;8.73;;;3.90;;
9248;SDS011;4660;41.768;26.198;2022-07-23T14:00:41;5.38;;;3.90;;
9248;SDS011;4660;41.768;26.198;2022-07-23T14:03:11;6.32;;;3.85;;
9248;SDS011;4660;41.768;26.198;2022-07-23T14:05:37;9.40;;;4.30;;
9248;SDS011;4660;41.768;26.198;2022-07-23T14:08:03;12.93;;;3.83;;
9248;SDS011;4660;41.768;26.198;2022-07-23T14:10:39;6.97;;;3.72;;
9248;SDS011;4660;41.768;26.198;2022-07-23T14:13:05;12.63;;;4.43;;
9248;SDS011;4660;41.768;26.198;2022-07-23T14:15:31;10.00;;;3.65;;
9248;SDS011;4660;41.768;26.198;2022-07-23T14:17:58;7.25;;;3.72;;
9248;SDS011;4660;41.768;26.198;2022-07-23T14:20:23;8.02;;;3.47;;
9248;SDS011;4660;41.768;26.198;2022-07-23T14:22:50;6.88;;;3.50;;
9248;SDS011;4660;41.768;26.198;2022-07-23T14:25:16;9.18;;;3.80;;
9248;SDS011;4660;41.768;26.198;2022-07-23T14:27:42;7.90;;;3.72;;
9248;SDS011;4660;41.768;26.198;2022-07-23T14:30:10;14.55;;;4.18;;
9248;SDS011;4660;41.768;26.198;2022-07-23T14:32:37;11.98;;;3.58;;
9248;SDS011;4660;41.768;26.198;2022-07-23T14:35:03;11.52;;;4.32;;
9248;SDS011;4660;41.768;26.198;2022-07-23T14:37:29;9.02;;;3.78;;
9248;SDS011;4660;41.768;26.198;2022-07-23T14:39:55;10.77;;;4.53;;
9248;SDS011;4660;41.768;26.198;2022-07-23T14:42:20;5.43;;;3.58;;
9248;SDS011;4660;41.768;26.198;2022-07-23T14:44:46;7.40;;;3.47;;
9248;SDS011;4660;41.768;26.198;2022-07-23T14:47:12;8.93;;;4.13;;
9248;SDS011;4660;41.768;26.198;2022-07-23T14:49:37;6.40;;;4.00;;
9248;SDS011;4660;41.768;26.198;2022-07-23T14:52:03;13.82;;;4.25;;
9248;SDS011;4660;41.768;26.198;2022-07-23T14:54:31;10.93;;;4.10;;
9248;SDS011;4660;41.768;26.198;2022-07-23T14:56:58;11.00;;;4.07;;
9248;SDS011;4660;41.768;26.198;2022-07-23T14:59:25;5.57;;;3.60;;
9248;SDS011;4660;41.768;26.198;2022-07-23T15:01:52;9.52;;;3.50;;
9248;SDS011;4660;41.768;26.198;2022-07-23T15:04:18;5.95;;;3.58;;
9248;SDS011;4660;41.768;26.198;2022-07-23T15:06:44;7.28;;;3.75;;
9248;SDS011;4660;41.768;26.198;2022-07-23T15:09:10;6.97;;;3.67;;
9248;SDS011;4660;41.768;26.198;2022-07-23T15:11:35;6.72;;;3.80;;
9248;SDS011;4660;41.768;26.198;2022-07-23T15:14:06;8.48;;;4.20;;
9248;SDS011;4660;41.768;26.198;2022-07-23T15:16:32;8.43;;;3.88;;
9248;SDS011;4660;41.768;26.198;2022-07-23T15:18:59;12.55;;;4.50;;
9248;SDS011;4660;41.768;26.198;2022-07-23T15:21:25;6.80;;;3.88;;
9248;SDS011;4660;41.768;26.198;2022-07-23T15:23:50;9.90;;;3.70;;
9248;SDS011;4660;41.768;26.198;2022-07-23T15:26:17;15.45;;;4.00;;
9248;SDS011;4660;41.768;26.198;2022-07-23T15:28:43;10.43;;;4.07;;
9248;SDS011;4660;41.768;26.198;2022-07-23T15:31:09;9.70;;;3.83;;
9248;SDS011;4660;41.768;26.198;2022-07-23T15:33:35;11.50;;;4.30;;
9248;SDS011;4660;41.768;26.198;2022-07-23T15:36:01;5.90;;;3.33;;
9248;SDS011;4660;41.768;26.198;2022-07-23T15:38:27;7.47;;;3.95;;
9248;SDS011;4660;41.768;26.198;2022-07-23T15:40:53;7.38;;;3.53;;
9248;SDS011;4660;41.768;26.198;2022-07-23T15:43:24;6.50;;;3.50;;
9248;SDS011;4660;41.768;26.198;2022-07-23T15:45:51;8.13;;;3.50;;
9248;SDS011;4660;41.768;26.198;2022-07-23T15:48:17;8.98;;;4.00;;
9248;SDS011;4660;41.768;26.198;2022-07-23T15:50:44;6.03;;;3.78;;
9248;SDS011;4660;41.768;26.198;2022-07-23T15:53:09;16.13;;;3.92;;
9248;SDS011;4660;41.768;26.198;2022-07-23T15:55:35;7.32;;;3.78;;
9248;SDS011;4660;41.768;26.198;2022-07-23T15:58:02;8.63;;;4.15;;
9248;SDS011;4660;41.768;26.198;2022-07-23T16:00:28;6.47;;;3.22;;